sensor_id;sensor_type;location;lat;lon;timestamp;P1;durP1;ratioP1;P2;durP2;ratioP2
34098;SDS011;20374;49.474;10.944;2023-09-30T00:01:01;6.32;;;4.90;;
34098;SDS011;20374;49.474;10.944;2023-09-30T00:03:28;4.37;;;4.03;;
34098;SDS011;20374;49.474;10.944;2023-09-30T00:05:54;5.78;;;4.60;;
34098;SDS011;20374;49.474;10.944;2023-09-30T00:08:20;4.88;;;4.47;;
34098;SDS011;20374;49.474;10.944;2023-09-30T00:10:46;4.63;;;4.25;;
34098;SDS011;20374;49.474;10.944;2023-09-30T00:13:12;4.70;;;4.30;;
34098;SDS011;20374;49.474;10.944;2023-09-30T00:15:38;5.45;;;4.15;;
34098;SDS011;20374;49.474;10.944;2023-09-30T00:18:06;5.70;;;5.20;;
34098;SDS011;20374;49.474;10.944;2023-09-30T00:20:32;5.57;;;4.95;;
34098;SDS011;20374;49.474;10.944;2023-09-30T00:22:58;4.10;;;3.73;;
34098;SDS011;20374;49.474;10.944;2023-09-30T00:25:24;4.63;;;4.22;;
34098;SDS011;20374;49.474;10.944;2023-09-30T00:27:49;4.95;;;4.53;;
34098;SDS011;20374;49.474;10.944;2023-09-30T00:30:16;4.45;;;4.05;;
34098;SDS011;20374;49.474;10.944;2023-09-30T00:32:42;4.53;;;4.23;;
34098;SDS011;20374;49.474;10.944;2023-09-30T00:35:10;4.97;;;4.53;;
34098;SDS011;20374;49.474;10.944;2023-09-30T00:37:37;4.95;;;4.55;;
34098;SDS011;20374;49.474;10.944;2023-09-30T00:40:04;5.15;;;4.65;;
34098;SDS011;20374;49.474;10.944;2023-09-30T00:42:31;4.40;;;4.00;;
34098;SDS011;20374;49.474;10.944;2023-09-30T00:44:57;4.60;;;4.10;;
34098;SDS011;20374;49.474;10.944;2023-09-30T00:47:23;4.97;;;4.55;;
34098;SDS011;20374;49.474;10.944;2023-09-30T00:49:49;5.35;;;4.13;;
34098;SDS011;20374;49.474;10.944;2023-09-30T00:52:16;4.80;;;4.50;;
34098;SDS011;20374;49.474;10.944;2023-09-30T00:54:43;4.38;;;3.97;;
34098;SDS011;20374;49.474;10.944;2023-09-30T00:57:11;4.45;;;4.13;;
34098;SDS011;20374;49.474;10.944;2023-09-30T00:59:38;5.10;;;4.60;;
34098;SDS011;20374;49.474;10.944;2023-09-30T01:02:05;4.85;;;3.88;;
34098;SDS011;20374;49.474;10.944;2023-09-30T01:04:32;5.30;;;4.90;;
34098;SDS011;20374;49.474;10.944;2023-09-30T01:06:58;5.47;;;3.40;;
34098;SDS011;20374;49.474;10.944;2023-09-30T01:09:25;4.88;;;4.43;;
34098;SDS011;20374;49.474;10.944;2023-09-30T01:11:53;4.55;;;4.15;;
34098;SDS011;20374;49.474;10.944;2023-09-30T01:16:51;4.50;;;4.20;;
34098;SDS011;20374;49.474;10.944;2023-09-30T01:19:17;5.28;;;4.68;;
34098;SDS011;20374;49.474;10.944;2023-09-30T01:21:43;5.32;;;4.93;;
34098;SDS011;20374;49.474;10.944;2023-09-30T01:24:14;5.28;;;4.68;;
34098;SDS011;20374;49.474;10.944;2023-09-30T01:26:40;5.32;;;4.93;;
34098;SDS011;20374;49.474;10.944;2023-09-30T01:29:08;5.40;;;4.90;;
34098;SDS011;20374;49.474;10.944;2023-09-30T01:31:36;5.43;;;4.40;;
34098;SDS011;20374;49.474;10.944;2023-09-30T01:34:03;4.85;;;4.35;;
34098;SDS011;20374;49.474;10.944;2023-09-30T01:36:30;4.40;;;4.03;;
34098;SDS011;20374;49.474;10.944;2023-09-30T01:38:57;5.60;;;5.10;;
34098;SDS011;20374;49.474;10.944;2023-09-30T01:41:23;5.10;;;4.60;;
34098;SDS011;20374;49.474;10.944;2023-09-30T01:43:49;4.95;;;4.40;;
34098;SDS011;20374;49.474;10.944;2023-09-30T01:46:15;6.00;;;5.05;;
34098;SDS011;20374;49.474;10.944;2023-09-30T01:48:41;5.18;;;4.68;;
34098;SDS011;20374;49.474;10.944;2023-09-30T01:51:07;5.00;;;4.60;;
34098;SDS011;20374;49.474;10.944;2023-09-30T01:53:33;4.78;;;4.38;;
34098;SDS011;20374;49.474;10.944;2023-09-30T01:55:59;5.38;;;4.97;;
34098;SDS011;20374;49.474;10.944;2023-09-30T01:58:25;5.25;;;4.90;;
34098;SDS011;20374;49.474;10.944;2023-09-30T02:03:32;4.93;;;4.60;;
34098;SDS011;20374;49.474;10.944;2023-09-30T02:05:58;5.45;;;5.05;;
34098;SDS011;20374;49.474;10.944;2023-09-30T02:08:24;5.33;;;4.83;;
34098;SDS011;20374;49.474;10.944;2023-09-30T02:10:50;5.15;;;4.75;;
34098;SDS011;20374;49.474;10.944;2023-09-30T02:13:18;5.00;;;4.50;;
34098;SDS011;20374;49.474;10.944;2023-09-30T02:15:44;9.73;;;4.70;;
34098;SDS011;20374;49.474;10.944;2023-09-30T02:18:10;4.97;;;4.57;;
34098;SDS011;20374;49.474;10.944;2023-09-30T02:20:39;4.70;;;4.30;;
34098;SDS011;20374;49.474;10.944;2023-09-30T02:23:05;5.10;;;4.60;;
34098;SDS011;20374;49.474;10.944;2023-09-30T02:25:33;4.60;;;4.20;;
34098;SDS011;20374;49.474;10.944;2023-09-30T02:27:58;4.70;;;4.30;;
34098;SDS011;20374;49.474;10.944;2023-09-30T02:30:25;5.40;;;4.95;;
34098;SDS011;20374;49.474;10.944;2023-09-30T02:32:52;4.13;;;3.83;;
34098;SDS011;20374;49.474;10.944;2023-09-30T02:35:18;4.80;;;3.88;;
34098;SDS011;20374;49.474;10.944;2023-09-30T02:37:45;4.38;;;4.05;;
34098;SDS011;20374;49.474;10.944;2023-09-30T02:40:11;5.00;;;4.60;;
34098;SDS011;20374;49.474;10.944;2023-09-30T02:42:40;4.53;;;4.13;;
34098;SDS011;20374;49.474;10.944;2023-09-30T02:45:06;3.25;;;3.03;;
34098;SDS011;20374;49.474;10.944;2023-09-30T02:47:33;4.57;;;4.20;;
34098;SDS011;20374;49.474;10.944;2023-09-30T02:50:00;4.55;;;4.15;;
34098;SDS011;20374;49.474;10.944;2023-09-30T02:52:27;4.38;;;4.07;;
34098;SDS011;20374;49.474;10.944;2023-09-30T02:54:56;4.45;;;4.15;;
34098;SDS011;20374;49.474;10.944;2023-09-30T02:57:23;3.67;;;3.38;;
34098;SDS011;20374;49.474;10.944;2023-09-30T02:59:50;4.60;;;4.30;;
34098;SDS011;20374;49.474;10.944;2023-09-30T03:02:19;5.03;;;3.83;;
34098;SDS011;20374;49.474;10.944;2023-09-30T03:04:48;5.30;;;4.80;;
34098;SDS011;20374;49.474;10.944;2023-09-30T03:07:17;4.53;;;4.22;;
34098;SDS011;20374;49.474;10.944;2023-09-30T03:09:45;4.15;;;3.85;;
34098;SDS011;20374;49.474;10.944;2023-09-30T03:12:12;4.43;;;4.03;;
34098;SDS011;20374;49.474;10.944;2023-09-30T03:14:39;3.70;;;3.40;;
34098;SDS011;20374;49.474;10.944;2023-09-30T03:17:05;4.88;;;4.13;;
34098;SDS011;20374;49.474;10.944;2023-09-30T03:19:36;4.63;;;4.22;;
34098;SDS011;20374;49.474;10.944;2023-09-30T03:22:04;4.40;;;4.00;;
34098;SDS011;20374;49.474;10.944;2023-09-30T03:24:31;4.70;;;4.30;;
34098;SDS011;20374;49.474;10.944;2023-09-30T03:26:57;4.45;;;4.05;;
34098;SDS011;20374;49.474;10.944;2023-09-30T03:29:23;4.28;;;3.97;;
34098;SDS011;20374;49.474;10.944;2023-09-30T03:31:49;4.60;;;4.30;;
34098;SDS011;20374;49.474;10.944;2023-09-30T03:34:15;4.23;;;3.93;;
34098;SDS011;20374;49.474;10.944;2023-09-30T03:36:41;4.60;;;3.65;;
34098;SDS011;20374;49.474;10.944;2023-09-30T03:39:08;5.18;;;4.78;;
34098;SDS011;20374;49.474;10.944;2023-09-30T03:41:34;6.45;;;4.13;;
34098;SDS011;20374;49.474;10.944;2023-09-30T03:44:03;4.70;;;4.30;;
34098;SDS011;20374;49.474;10.944;2023-09-30T03:46:29;5.47;;;4.10;;
34098;SDS011;20374;49.474;10.944;2023-09-30T03:48:55;4.75;;;4.35;;
34098;SDS011;20374;49.474;10.944;2023-09-30T03:51:21;3.85;;;3.55;;
34098;SDS011;20374;49.474;10.944;2023-09-30T03:53:50;4.00;;;3.70;;
34098;SDS011;20374;49.474;10.944;2023-09-30T03:56:17;5.33;;;3.70;;
34098;SDS011;20374;49.474;10.944;2023-09-30T03:58:43;3.88;;;3.50;;
34098;SDS011;20374;49.474;10.944;2023-09-30T04:01:10;4.10;;;3.80;;
34098;SDS011;20374;49.474;10.944;2023-09-30T04:03:36;4.40;;;3.60;;
34098;SDS011;20374;49.474;10.944;2023-09-30T04:06:04;4.65;;;4.22;;
34098;SDS011;20374;49.474;10.944;2023-09-30T04:08:32;5.77;;;3.97;;
34098;SDS011;20374;49.474;10.944;2023-09-30T04:11:02;3.63;;;3.30;;
34098;SDS011;20374;49.474;10.944;2023-09-30T04:13:28;4.75;;;4.25;;
34098;SDS011;20374;49.474;10.944;2023-09-30T04:15:58;4.25;;;3.92;;
34098;SDS011;20374;49.474;10.944;2023-09-30T04:18:24;4.00;;;3.70;;
34098;SDS011;20374;49.474;10.944;2023-09-30T04:20:51;3.67;;;3.38;;
34098;SDS011;20374;49.474;10.944;2023-09-30T04:23:18;4.90;;;4.50;;
34098;SDS011;20374;49.474;10.944;2023-09-30T04:25:45;3.90;;;3.60;;
34098;SDS011;20374;49.474;10.944;2023-09-30T04:28:12;4.15;;;3.85;;
34098;SDS011;20374;49.474;10.944;2023-09-30T04:30:39;4.30;;;3.90;;
34098;SDS011;20374;49.474;10.944;2023-09-30T04:33:06;4.60;;;4.00;;
34098;SDS011;20374;49.474;10.944;2023-09-30T04:35:33;4.53;;;4.13;;
34098;SDS011;20374;49.474;10.944;2023-09-30T04:38:01;3.78;;;3.47;;
34098;SDS011;20374;49.474;10.944;2023-09-30T04:40:27;4.60;;;4.20;;
34098;SDS011;20374;49.474;10.944;2023-09-30T04:42:53;3.83;;;3.47;;
34098;SDS011;20374;49.474;10.944;2023-09-30T04:45:24;4.18;;;3.78;;
34098;SDS011;20374;49.474;10.944;2023-09-30T04:47:51;3.33;;;3.13;;
34098;SDS011;20374;49.474;10.944;2023-09-30T04:50:18;3.85;;;3.25;;
34098;SDS011;20374;49.474;10.944;2023-09-30T04:52:47;4.27;;;3.97;;
34098;SDS011;20374;49.474;10.944;2023-09-30T04:55:13;3.38;;;3.08;;
34098;SDS011;20374;49.474;10.944;2023-09-30T04:57:42;3.50;;;3.20;;
34098;SDS011;20374;49.474;10.944;2023-09-30T05:00:12;4.00;;;3.70;;
34098;SDS011;20374;49.474;10.944;2023-09-30T05:02:44;3.97;;;3.67;;
34098;SDS011;20374;49.474;10.944;2023-09-30T05:05:11;4.00;;;3.73;;
34098;SDS011;20374;49.474;10.944;2023-09-30T05:07:37;4.15;;;3.75;;
34098;SDS011;20374;49.474;10.944;2023-09-30T05:10:03;3.85;;;3.55;;
34098;SDS011;20374;49.474;10.944;2023-09-30T05:12:36;4.55;;;4.15;;
34098;SDS011;20374;49.474;10.944;2023-09-30T05:15:02;4.10;;;3.63;;
34098;SDS011;20374;49.474;10.944;2023-09-30T05:17:29;3.83;;;3.53;;
34098;SDS011;20374;49.474;10.944;2023-09-30T05:19:58;3.95;;;3.65;;
34098;SDS011;20374;49.474;10.944;2023-09-30T05:22:24;3.70;;;3.35;;
34098;SDS011;20374;49.474;10.944;2023-09-30T05:24:50;4.03;;;3.63;;
34098;SDS011;20374;49.474;10.944;2023-09-30T05:27:17;3.63;;;3.35;;
34098;SDS011;20374;49.474;10.944;2023-09-30T05:29:44;3.90;;;3.60;;
34098;SDS011;20374;49.474;10.944;2023-09-30T05:32:10;4.30;;;4.00;;
34098;SDS011;20374;49.474;10.944;2023-09-30T05:34:36;4.05;;;3.45;;
34098;SDS011;20374;49.474;10.944;2023-09-30T05:37:04;4.40;;;4.10;;
34098;SDS011;20374;49.474;10.944;2023-09-30T05:39:30;3.67;;;3.38;;
34098;SDS011;20374;49.474;10.944;2023-09-30T05:41:57;4.65;;;4.25;;
34098;SDS011;20374;49.474;10.944;2023-09-30T05:44:23;3.63;;;3.33;;
34098;SDS011;20374;49.474;10.944;2023-09-30T05:46:51;4.10;;;3.70;;
34098;SDS011;20374;49.474;10.944;2023-09-30T05:49:17;4.90;;;4.50;;
34098;SDS011;20374;49.474;10.944;2023-09-30T05:51:44;4.00;;;3.70;;
34098;SDS011;20374;49.474;10.944;2023-09-30T05:54:11;4.65;;;4.35;;
34098;SDS011;20374;49.474;10.944;2023-09-30T05:56:37;4.22;;;3.92;;
34098;SDS011;20374;49.474;10.944;2023-09-30T05:59:04;4.83;;;4.37;;
34098;SDS011;20374;49.474;10.944;2023-09-30T06:01:32;3.33;;;3.13;;
34098;SDS011;20374;49.474;10.944;2023-09-30T06:03:58;4.22;;;3.92;;
34098;SDS011;20374;49.474;10.944;2023-09-30T06:06:25;4.72;;;4.32;;
34098;SDS011;20374;49.474;10.944;2023-09-30T06:08:53;3.63;;;3.30;;
34098;SDS011;20374;49.474;10.944;2023-09-30T06:11:22;4.30;;;4.00;;
34098;SDS011;20374;49.474;10.944;2023-09-30T06:13:53;4.82;;;4.43;;
34098;SDS011;20374;49.474;10.944;2023-09-30T06:16:20;3.75;;;3.45;;
34098;SDS011;20374;49.474;10.944;2023-09-30T06:18:46;4.30;;;3.67;;
34098;SDS011;20374;49.474;10.944;2023-09-30T06:21:15;4.13;;;3.83;;
34098;SDS011;20374;49.474;10.944;2023-09-30T06:23:48;4.43;;;4.13;;
34098;SDS011;20374;49.474;10.944;2023-09-30T06:26:17;4.40;;;4.07;;
34098;SDS011;20374;49.474;10.944;2023-09-30T06:28:43;4.88;;;4.38;;
34098;SDS011;20374;49.474;10.944;2023-09-30T06:31:10;5.00;;;4.45;;
34098;SDS011;20374;49.474;10.944;2023-09-30T06:33:36;4.45;;;4.05;;
34098;SDS011;20374;49.474;10.944;2023-09-30T06:36:10;3.87;;;3.50;;
34098;SDS011;20374;49.474;10.944;2023-09-30T06:38:39;4.13;;;3.83;;
34098;SDS011;20374;49.474;10.944;2023-09-30T06:41:07;4.22;;;3.92;;
34098;SDS011;20374;49.474;10.944;2023-09-30T06:43:33;4.32;;;4.03;;
34098;SDS011;20374;49.474;10.944;2023-09-30T06:46:06;4.00;;;3.70;;
34098;SDS011;20374;49.474;10.944;2023-09-30T06:48:36;4.80;;;4.47;;
34098;SDS011;20374;49.474;10.944;2023-09-30T06:51:02;4.10;;;3.78;;
34098;SDS011;20374;49.474;10.944;2023-09-30T06:53:28;4.15;;;3.75;;
34098;SDS011;20374;49.474;10.944;2023-09-30T06:55:54;4.45;;;4.05;;
34098;SDS011;20374;49.474;10.944;2023-09-30T06:58:21;4.80;;;4.30;;
34098;SDS011;20374;49.474;10.944;2023-09-30T07:00:49;4.50;;;4.10;;
34098;SDS011;20374;49.474;10.944;2023-09-30T07:03:17;4.85;;;4.40;;
34098;SDS011;20374;49.474;10.944;2023-09-30T07:05:44;4.22;;;3.90;;
34098;SDS011;20374;49.474;10.944;2023-09-30T07:08:11;4.40;;;4.10;;
34098;SDS011;20374;49.474;10.944;2023-09-30T07:10:37;4.73;;;4.23;;
34098;SDS011;20374;49.474;10.944;2023-09-30T07:13:03;4.72;;;4.43;;
34098;SDS011;20374;49.474;10.944;2023-09-30T07:15:30;7.32;;;4.07;;
34098;SDS011;20374;49.474;10.944;2023-09-30T07:17:56;4.43;;;4.05;;
34098;SDS011;20374;49.474;10.944;2023-09-30T07:20:22;4.57;;;4.27;;
34098;SDS011;20374;49.474;10.944;2023-09-30T07:22:48;4.40;;;4.10;;
34098;SDS011;20374;49.474;10.944;2023-09-30T07:25:14;4.10;;;3.80;;
34098;SDS011;20374;49.474;10.944;2023-09-30T07:27:44;4.22;;;3.83;;
34098;SDS011;20374;49.474;10.944;2023-09-30T07:30:10;5.17;;;4.70;;
34098;SDS011;20374;49.474;10.944;2023-09-30T07:32:43;4.18;;;3.88;;
34098;SDS011;20374;49.474;10.944;2023-09-30T07:35:11;4.22;;;3.83;;
34098;SDS011;20374;49.474;10.944;2023-09-30T07:37:40;4.97;;;4.57;;
34098;SDS011;20374;49.474;10.944;2023-09-30T07:40:07;5.82;;;5.43;;
34098;SDS011;20374;49.474;10.944;2023-09-30T07:42:33;4.43;;;4.10;;
34098;SDS011;20374;49.474;10.944;2023-09-30T07:45:00;4.30;;;4.00;;
34098;SDS011;20374;49.474;10.944;2023-09-30T07:47:26;5.78;;;4.57;;
34098;SDS011;20374;49.474;10.944;2023-09-30T07:49:52;4.93;;;4.43;;
34098;SDS011;20374;49.474;10.944;2023-09-30T07:52:18;6.20;;;4.23;;
34098;SDS011;20374;49.474;10.944;2023-09-30T07:54:44;4.30;;;3.90;;
34098;SDS011;20374;49.474;10.944;2023-09-30T07:57:09;4.53;;;3.97;;
34098;SDS011;20374;49.474;10.944;2023-09-30T07:59:35;4.73;;;4.30;;
34098;SDS011;20374;49.474;10.944;2023-09-30T08:02:01;4.75;;;4.35;;
34098;SDS011;20374;49.474;10.944;2023-09-30T08:04:30;4.78;;;4.38;;
34098;SDS011;20374;49.474;10.944;2023-09-30T08:06:56;4.90;;;4.50;;
34098;SDS011;20374;49.474;10.944;2023-09-30T08:09:23;4.28;;;3.97;;
34098;SDS011;20374;49.474;10.944;2023-09-30T08:11:49;4.47;;;4.00;;
34098;SDS011;20374;49.474;10.944;2023-09-30T08:14:17;4.45;;;4.15;;
34098;SDS011;20374;49.474;10.944;2023-09-30T08:16:43;5.43;;;3.78;;
34098;SDS011;20374;49.474;10.944;2023-09-30T08:19:09;4.10;;;3.80;;
34098;SDS011;20374;49.474;10.944;2023-09-30T08:21:35;4.53;;;4.13;;
34098;SDS011;20374;49.474;10.944;2023-09-30T08:24:01;5.13;;;4.70;;
34098;SDS011;20374;49.474;10.944;2023-09-30T08:26:28;4.90;;;4.25;;
34098;SDS011;20374;49.474;10.944;2023-09-30T08:28:54;4.93;;;4.53;;
34098;SDS011;20374;49.474;10.944;2023-09-30T08:31:19;4.75;;;4.35;;
34098;SDS011;20374;49.474;10.944;2023-09-30T08:33:47;5.57;;;5.07;;
34098;SDS011;20374;49.474;10.944;2023-09-30T08:36:13;5.03;;;4.63;;
34098;SDS011;20374;49.474;10.944;2023-09-30T08:38:39;5.03;;;4.50;;
34098;SDS011;20374;49.474;10.944;2023-09-30T08:41:06;4.28;;;3.97;;
34098;SDS011;20374;49.474;10.944;2023-09-30T08:43:39;4.93;;;4.63;;
34098;SDS011;20374;49.474;10.944;2023-09-30T08:46:05;4.72;;;4.32;;
34098;SDS011;20374;49.474;10.944;2023-09-30T08:48:33;4.07;;;3.78;;
34098;SDS011;20374;49.474;10.944;2023-09-30T08:50:59;4.80;;;4.40;;
34098;SDS011;20374;49.474;10.944;2023-09-30T08:53:28;5.18;;;4.72;;
34098;SDS011;20374;49.474;10.944;2023-09-30T08:55:55;5.03;;;4.63;;
34098;SDS011;20374;49.474;10.944;2023-09-30T08:58:26;4.53;;;4.13;;
34098;SDS011;20374;49.474;10.944;2023-09-30T09:00:54;5.15;;;4.68;;
34098;SDS011;20374;49.474;10.944;2023-09-30T09:03:21;5.28;;;4.88;;
34098;SDS011;20374;49.474;10.944;2023-09-30T09:05:55;4.55;;;4.18;;
34098;SDS011;20374;49.474;10.944;2023-09-30T09:08:22;5.13;;;4.83;;
34098;SDS011;20374;49.474;10.944;2023-09-30T09:10:57;4.63;;;4.32;;
34098;SDS011;20374;49.474;10.944;2023-09-30T09:13:25;5.25;;;4.80;;
34098;SDS011;20374;49.474;10.944;2023-09-30T09:16:10;5.00;;;4.50;;
34098;SDS011;20374;49.474;10.944;2023-09-30T09:18:36;5.32;;;4.30;;
34098;SDS011;20374;49.474;10.944;2023-09-30T09:21:12;5.10;;;4.70;;
34098;SDS011;20374;49.474;10.944;2023-09-30T09:23:42;5.07;;;4.57;;
34098;SDS011;20374;49.474;10.944;2023-09-30T09:26:10;4.95;;;4.40;;
34098;SDS011;20374;49.474;10.944;2023-09-30T09:28:37;4.70;;;4.30;;
34098;SDS011;20374;49.474;10.944;2023-09-30T09:31:23;5.38;;;4.97;;
34098;SDS011;20374;49.474;10.944;2023-09-30T09:34:00;5.10;;;4.70;;
34098;SDS011;20374;49.474;10.944;2023-09-30T09:36:44;4.82;;;4.43;;
34098;SDS011;20374;49.474;10.944;2023-09-30T09:39:14;5.18;;;4.70;;
34098;SDS011;20374;49.474;10.944;2023-09-30T09:41:54;5.40;;;4.95;;
34098;SDS011;20374;49.474;10.944;2023-09-30T09:44:22;4.43;;;4.03;;
34098;SDS011;20374;49.474;10.944;2023-09-30T09:46:52;4.80;;;4.40;;
34098;SDS011;20374;49.474;10.944;2023-09-30T09:49:18;5.20;;;4.80;;
34098;SDS011;20374;49.474;10.944;2023-09-30T09:51:45;4.63;;;4.32;;
34098;SDS011;20374;49.474;10.944;2023-09-30T09:54:12;4.60;;;4.20;;
34098;SDS011;20374;49.474;10.944;2023-09-30T09:56:39;5.22;;;4.93;;
34098;SDS011;20374;49.474;10.944;2023-09-30T09:59:08;5.10;;;4.70;;
34098;SDS011;20374;49.474;10.944;2023-09-30T10:01:36;5.18;;;4.78;;
34098;SDS011;20374;49.474;10.944;2023-09-30T10:04:04;5.95;;;5.25;;
34098;SDS011;20374;49.474;10.944;2023-09-30T10:06:31;5.07;;;4.78;;
34098;SDS011;20374;49.474;10.944;2023-09-30T10:09:05;5.88;;;5.10;;
34098;SDS011;20374;49.474;10.944;2023-09-30T10:11:33;5.20;;;4.70;;
34098;SDS011;20374;49.474;10.944;2023-09-30T10:13:59;4.32;;;4.03;;
34098;SDS011;20374;49.474;10.944;2023-09-30T10:24:46;5.50;;;5.00;;
34098;SDS011;20374;49.474;10.944;2023-09-30T10:27:33;5.63;;;5.13;;
34098;SDS011;20374;49.474;10.944;2023-09-30T10:40:47;6.38;;;5.75;;
34098;SDS011;20374;49.474;10.944;2023-09-30T10:45:58;6.22;;;5.63;;
34098;SDS011;20374;49.474;10.944;2023-09-30T10:50:59;7.33;;;6.83;;
34098;SDS011;20374;49.474;10.944;2023-09-30T10:53:29;5.38;;;4.95;;
34098;SDS011;20374;49.474;10.944;2023-09-30T10:55:59;6.00;;;5.53;;
34098;SDS011;20374;49.474;10.944;2023-09-30T11:01:08;5.50;;;5.00;;
34098;SDS011;20374;49.474;10.944;2023-09-30T11:03:34;4.97;;;4.60;;
34098;SDS011;20374;49.474;10.944;2023-09-30T11:06:00;5.28;;;4.88;;
34098;SDS011;20374;49.474;10.944;2023-09-30T11:08:28;5.97;;;5.47;;
34098;SDS011;20374;49.474;10.944;2023-09-30T11:10:57;4.85;;;4.55;;
34098;SDS011;20374;49.474;10.944;2023-09-30T11:13:30;5.50;;;5.20;;
34098;SDS011;20374;49.474;10.944;2023-09-30T11:16:14;5.05;;;4.65;;
34098;SDS011;20374;49.474;10.944;2023-09-30T11:18:40;4.95;;;4.55;;
34098;SDS011;20374;49.474;10.944;2023-09-30T11:21:08;5.28;;;4.65;;
34098;SDS011;20374;49.474;10.944;2023-09-30T11:23:36;5.30;;;4.90;;
34098;SDS011;20374;49.474;10.944;2023-09-30T11:26:03;5.43;;;5.03;;
34098;SDS011;20374;49.474;10.944;2023-09-30T11:28:39;5.35;;;4.95;;
34098;SDS011;20374;49.474;10.944;2023-09-30T11:31:07;5.18;;;4.88;;
34098;SDS011;20374;49.474;10.944;2023-09-30T11:33:48;5.82;;;5.43;;
34098;SDS011;20374;49.474;10.944;2023-09-30T11:36:22;5.80;;;5.22;;
34098;SDS011;20374;49.474;10.944;2023-09-30T11:38:50;4.50;;;4.20;;
34098;SDS011;20374;49.474;10.944;2023-09-30T11:41:17;5.30;;;4.80;;
34098;SDS011;20374;49.474;10.944;2023-09-30T11:46:30;4.85;;;4.55;;
34098;SDS011;20374;49.474;10.944;2023-09-30T11:49:00;5.07;;;4.68;;
34098;SDS011;20374;49.474;10.944;2023-09-30T11:51:28;4.67;;;4.30;;
34098;SDS011;20374;49.474;10.944;2023-09-30T11:53:54;5.53;;;5.13;;
34098;SDS011;20374;49.474;10.944;2023-09-30T11:56:23;5.10;;;4.75;;
34098;SDS011;20374;49.474;10.944;2023-09-30T11:58:54;5.15;;;4.75;;
34098;SDS011;20374;49.474;10.944;2023-09-30T12:01:21;4.95;;;4.60;;
34098;SDS011;20374;49.474;10.944;2023-09-30T12:03:48;5.50;;;5.00;;
34098;SDS011;20374;49.474;10.944;2023-09-30T12:06:14;5.43;;;5.03;;
34098;SDS011;20374;49.474;10.944;2023-09-30T12:08:41;4.72;;;4.25;;
34098;SDS011;20374;49.474;10.944;2023-09-30T12:11:11;5.72;;;5.30;;
34098;SDS011;20374;49.474;10.944;2023-09-30T12:13:39;4.90;;;4.60;;
34098;SDS011;20374;49.474;10.944;2023-09-30T12:16:05;4.70;;;4.30;;
34098;SDS011;20374;49.474;10.944;2023-09-30T12:18:31;5.28;;;4.88;;
34098;SDS011;20374;49.474;10.944;2023-09-30T12:20:57;5.57;;;5.07;;
34098;SDS011;20374;49.474;10.944;2023-09-30T12:23:24;5.40;;;5.00;;
34098;SDS011;20374;49.474;10.944;2023-09-30T12:25:50;5.15;;;4.75;;
34098;SDS011;20374;49.474;10.944;2023-09-30T12:28:15;6.07;;;5.47;;
34098;SDS011;20374;49.474;10.944;2023-09-30T12:30:43;5.43;;;5.00;;
34098;SDS011;20374;49.474;10.944;2023-09-30T12:33:09;5.85;;;5.40;;
34098;SDS011;20374;49.474;10.944;2023-09-30T12:35:38;5.07;;;4.68;;
34098;SDS011;20374;49.474;10.944;2023-09-30T12:38:04;5.35;;;4.95;;
34098;SDS011;20374;49.474;10.944;2023-09-30T12:40:30;5.67;;;5.17;;
34098;SDS011;20374;49.474;10.944;2023-09-30T12:42:56;5.65;;;5.10;;
34098;SDS011;20374;49.474;10.944;2023-09-30T12:45:23;6.03;;;5.43;;
34098;SDS011;20374;49.474;10.944;2023-09-30T12:47:48;5.37;;;4.77;;
34098;SDS011;20374;49.474;10.944;2023-09-30T12:50:17;5.22;;;4.82;;
34098;SDS011;20374;49.474;10.944;2023-09-30T12:52:43;5.53;;;4.97;;
34098;SDS011;20374;49.474;10.944;2023-09-30T12:55:09;5.10;;;4.70;;
34098;SDS011;20374;49.474;10.944;2023-09-30T12:57:36;5.80;;;5.40;;
34098;SDS011;20374;49.474;10.944;2023-09-30T13:00:02;5.43;;;5.03;;
34098;SDS011;20374;49.474;10.944;2023-09-30T13:02:28;6.25;;;5.78;;
34098;SDS011;20374;49.474;10.944;2023-09-30T13:04:54;5.60;;;5.10;;
34098;SDS011;20374;49.474;10.944;2023-09-30T13:07:20;4.90;;;4.50;;
34098;SDS011;20374;49.474;10.944;2023-09-30T13:09:46;6.50;;;5.90;;
34098;SDS011;20374;49.474;10.944;2023-09-30T13:12:12;5.83;;;5.33;;
34098;SDS011;20374;49.474;10.944;2023-09-30T13:14:38;5.72;;;5.32;;
34098;SDS011;20374;49.474;10.944;2023-09-30T13:17:04;6.55;;;5.90;;
34098;SDS011;20374;49.474;10.944;2023-09-30T13:19:30;5.70;;;5.20;;
34098;SDS011;20374;49.474;10.944;2023-09-30T13:21:58;6.22;;;5.72;;
34098;SDS011;20374;49.474;10.944;2023-09-30T13:24:24;6.20;;;5.70;;
34098;SDS011;20374;49.474;10.944;2023-09-30T13:26:50;6.18;;;5.68;;
34098;SDS011;20374;49.474;10.944;2023-09-30T13:29:18;6.40;;;5.80;;
34098;SDS011;20374;49.474;10.944;2023-09-30T13:31:44;6.70;;;6.20;;
34098;SDS011;20374;49.474;10.944;2023-09-30T13:34:10;6.55;;;6.07;;
34098;SDS011;20374;49.474;10.944;2023-09-30T13:36:37;6.50;;;6.00;;
34098;SDS011;20374;49.474;10.944;2023-09-30T13:39:03;6.60;;;6.15;;
34098;SDS011;20374;49.474;10.944;2023-09-30T13:41:35;7.78;;;7.15;;
34098;SDS011;20374;49.474;10.944;2023-09-30T13:44:01;6.57;;;6.03;;
34098;SDS011;20374;49.474;10.944;2023-09-30T13:46:27;6.90;;;6.40;;
34098;SDS011;20374;49.474;10.944;2023-09-30T13:48:54;7.30;;;6.70;;
34098;SDS011;20374;49.474;10.944;2023-09-30T13:51:19;6.85;;;6.25;;
34098;SDS011;20374;49.474;10.944;2023-09-30T13:53:45;6.90;;;6.30;;
34098;SDS011;20374;49.474;10.944;2023-09-30T13:56:11;6.28;;;5.88;;
34098;SDS011;20374;49.474;10.944;2023-09-30T13:58:37;7.43;;;6.13;;
34098;SDS011;20374;49.474;10.944;2023-09-30T14:01:03;7.35;;;6.05;;
34098;SDS011;20374;49.474;10.944;2023-09-30T14:03:29;6.75;;;6.25;;
34098;SDS011;20374;49.474;10.944;2023-09-30T14:05:55;7.20;;;6.63;;
34098;SDS011;20374;49.474;10.944;2023-09-30T14:08:22;6.13;;;5.63;;
34098;SDS011;20374;49.474;10.944;2023-09-30T14:10:49;6.57;;;6.07;;
34098;SDS011;20374;49.474;10.944;2023-09-30T14:13:16;6.30;;;5.70;;
34098;SDS011;20374;49.474;10.944;2023-09-30T14:15:44;5.40;;;4.90;;
34098;SDS011;20374;49.474;10.944;2023-09-30T14:18:12;7.07;;;6.57;;
34098;SDS011;20374;49.474;10.944;2023-09-30T14:20:37;6.50;;;6.00;;
34098;SDS011;20374;49.474;10.944;2023-09-30T14:23:03;6.65;;;6.18;;
34098;SDS011;20374;49.474;10.944;2023-09-30T14:25:29;6.85;;;6.22;;
34098;SDS011;20374;49.474;10.944;2023-09-30T14:27:55;6.30;;;5.80;;
34098;SDS011;20374;49.474;10.944;2023-09-30T14:30:25;6.38;;;5.75;;
34098;SDS011;20374;49.474;10.944;2023-09-30T14:32:51;5.90;;;5.32;;
34098;SDS011;20374;49.474;10.944;2023-09-30T14:35:17;6.90;;;6.30;;
34098;SDS011;20374;49.474;10.944;2023-09-30T14:37:43;7.32;;;6.63;;
34098;SDS011;20374;49.474;10.944;2023-09-30T14:40:09;6.40;;;5.80;;
34098;SDS011;20374;49.474;10.944;2023-09-30T14:42:38;7.33;;;6.13;;
34098;SDS011;20374;49.474;10.944;2023-09-30T14:45:05;5.85;;;5.25;;
34098;SDS011;20374;49.474;10.944;2023-09-30T14:47:31;6.05;;;5.55;;
34098;SDS011;20374;49.474;10.944;2023-09-30T14:49:57;5.75;;;5.25;;
34098;SDS011;20374;49.474;10.944;2023-09-30T14:52:25;6.40;;;5.90;;
34098;SDS011;20374;49.474;10.944;2023-09-30T14:54:51;6.20;;;5.63;;
34098;SDS011;20374;49.474;10.944;2023-09-30T14:57:16;6.45;;;5.95;;
34098;SDS011;20374;49.474;10.944;2023-09-30T14:59:45;6.30;;;5.70;;
34098;SDS011;20374;49.474;10.944;2023-09-30T15:02:11;5.93;;;5.43;;
34098;SDS011;20374;49.474;10.944;2023-09-30T15:04:36;6.38;;;5.78;;
34098;SDS011;20374;49.474;10.944;2023-09-30T15:07:03;7.07;;;5.53;;
34098;SDS011;20374;49.474;10.944;2023-09-30T15:09:28;6.13;;;5.63;;